KANB/ANB METAR and TAF weather

Enter ICAO airport designator
Station Type Date Time Source
KANB METAR 2018/01/23 00:53 UTC NOAA

KANB 230053Z AUTO 04003KT 10SM OVC060 17/14 A2989 RMK AO2 SLP121 T01670144


Station Type Date Time Source
KANB Decoded METAR 2018/01/23 00:53 UTC NOAA

ANNISTON METRO AIRPORT, AL, United States (KANB) 33-35N 085-51W 183M
Jan 22, 2018 - 07:53 PM EST / 2018.01.23 0053 UTC
Wind: from the NE (040 degrees) at 3 MPH (3 KT):0
Visibility: 10 mile(s):0
Sky conditions: overcast
Temperature: 62.1 F (16.7 C)
Dew Point: 57.9 F (14.4 C)
Relative Humidity: 86%
Pressure (altimeter): 29.89 in. Hg (1012 hPa)
ob: KANB 230053Z AUTO 04003KT 10SM OVC060 17/14 A2989 RMK AO2 SLP121 T01670144
cycle: 1

Station Type Date Time Source
KANB TAF 2018/01/22 20:06 UTC NOAA

TAF
AMD KANB 222005Z 2220/2318 17013KT 6SM BR OVC015
FM230600 27005KT P6SM SKC
FM231500 27011G16KT P6SM SKC


Example: see airport list